createdAt,value
2022-11-06T00:05:16.518Z,14.10
2022-11-06T00:10:19.315Z,14.20
2022-11-06T00:15:21.432Z,14.10
2022-11-06T00:20:23.948Z,14.10
2022-11-06T00:25:25.990Z,14.20
2022-11-06T00:30:28.133Z,14.30
2022-11-06T00:35:30.238Z,14.40
2022-11-06T00:40:33.027Z,14.50
2022-11-06T00:45:35.119Z,14.50
2022-11-06T00:50:38.120Z,14.50
2022-11-06T00:55:40.193Z,14.50
2022-11-06T01:00:42.227Z,14.50
2022-11-06T01:05:44.337Z,14.50
2022-11-06T01:10:46.535Z,14.60
2022-11-06T01:15:48.606Z,14.70
2022-11-06T01:20:50.661Z,14.70
2022-11-06T01:25:57.491Z,14.80
2022-11-06T01:31:07.498Z,14.70
2022-11-06T01:36:11.545Z,14.80
2022-11-06T01:41:16.531Z,14.80
2022-11-06T01:46:20.022Z,14.80
2022-11-06T01:51:24.889Z,14.70
2022-11-06T01:56:26.982Z,14.70
2022-11-06T02:01:29.352Z,14.80
2022-11-06T02:06:32.300Z,14.70
2022-11-06T02:11:34.512Z,14.70
2022-11-06T02:16:48.023Z,14.80
2022-11-06T02:21:55.996Z,14.80
2022-11-06T02:27:12.757Z,14.70
2022-11-06T02:32:35.110Z,14.80
2022-11-06T02:37:38.299Z,14.70
2022-11-06T02:42:45.882Z,14.70
2022-11-06T02:47:50.888Z,14.60
2022-11-06T02:52:58.998Z,14.70
2022-11-06T02:58:11.222Z,14.70
2022-11-06T03:03:21.579Z,14.50
2022-11-06T03:08:56.251Z,14.10
2022-11-06T03:14:23.129Z,13.90
2022-11-06T03:19:53.253Z,13.80
2022-11-06T03:25:20.183Z,13.80
2022-11-06T03:30:22.652Z,13.80
2022-11-06T03:35:24.780Z,13.80
2022-11-06T03:40:31.923Z,13.80
2022-11-06T03:45:35.410Z,13.70
2022-11-06T03:50:47.856Z,13.60
2022-11-06T03:55:58.113Z,13.60
2022-11-06T04:01:04.416Z,13.50
2022-11-06T04:06:20.033Z,13.40
2022-11-06T04:11:44.816Z,13.40
2022-11-06T04:16:52.174Z,13.40
2022-11-06T04:22:10.669Z,13.30
2022-11-06T04:27:33.763Z,13.30
2022-11-06T04:33:09.815Z,13.30
2022-11-06T04:38:43.049Z,13.20
2022-11-06T04:44:04.195Z,13.20
2022-11-06T04:49:07.807Z,13.20
2022-11-06T04:54:11.073Z,13.20
2022-11-06T04:59:16.604Z,13.20
2022-11-06T05:04:18.816Z,13.20
2022-11-06T05:09:21.020Z,13.20
2022-11-06T05:14:23.299Z,13.20
2022-11-06T05:19:25.690Z,13.20
2022-11-06T05:24:27.897Z,13.10
2022-11-06T05:29:30.020Z,13.10
2022-11-06T05:34:32.175Z,13.20
2022-11-06T05:39:39.002Z,13.20
2022-11-06T05:44:43.731Z,13.20
2022-11-06T05:49:45.916Z,13.20
2022-11-06T05:54:48.008Z,13.20
2022-11-06T05:59:50.223Z,13.20
2022-11-06T06:04:52.426Z,13.20
2022-11-06T06:09:54.476Z,13.20
2022-11-06T06:14:56.625Z,13.20
2022-11-06T06:19:59.010Z,13.20
2022-11-06T06:25:01.152Z,13.30
2022-11-06T06:30:03.480Z,13.30
2022-11-06T06:35:06.230Z,13.30
2022-11-06T06:40:10.143Z,13.30
2022-11-06T06:45:12.283Z,13.20
2022-11-06T06:50:14.510Z,13.30
2022-11-06T06:55:16.733Z,13.20
2022-11-06T07:00:19.030Z,13.20
2022-11-06T07:05:21.388Z,13.20
2022-11-06T07:10:23.594Z,13.20
2022-11-06T07:15:25.807Z,13.30
2022-11-06T07:20:28.134Z,13.30
2022-11-06T07:25:30.336Z,13.20
2022-11-06T07:30:33.317Z,13.20
2022-11-06T07:35:35.672Z,13.20
2022-11-06T07:40:37.866Z,13.20
2022-11-06T07:45:40.140Z,13.20
2022-11-06T07:50:42.271Z,13.20
2022-11-06T07:55:55.466Z,13.20
2022-11-06T08:00:58.843Z,13.20
2022-11-06T08:06:04.610Z,13.20
2022-11-06T08:11:09.325Z,13.20
2022-11-06T08:16:14.098Z,13.30
2022-11-06T08:21:16.211Z,13.30
2022-11-06T08:26:18.455Z,13.30
2022-11-06T08:31:21.204Z,13.40
2022-11-06T08:36:23.317Z,13.50
2022-11-06T08:41:25.367Z,13.60
2022-11-06T08:46:27.572Z,13.60
2022-11-06T08:51:29.716Z,13.50
2022-11-06T08:56:31.821Z,13.40
2022-11-06T09:01:34.067Z,13.40
2022-11-06T09:06:36.276Z,13.40
2022-11-06T09:11:38.358Z,13.60
2022-11-06T09:16:40.514Z,13.60
2022-11-06T09:21:42.831Z,13.60
2022-11-06T09:26:44.918Z,13.70
2022-11-06T09:31:47.006Z,13.90
2022-11-06T09:36:49.180Z,14.00
2022-11-06T09:42:16.049Z,14.00
2022-11-06T09:47:24.017Z,14.00
2022-11-06T09:52:42.852Z,13.90
2022-11-06T09:58:13.441Z,14.10
2022-11-06T10:03:22.534Z,14.10
2022-11-06T10:08:28.412Z,14.20
2022-11-06T10:13:52.186Z,14.30
2022-11-06T10:19:05.168Z,14.50
2022-11-06T10:24:23.642Z,14.50
2022-11-06T10:29:53.959Z,14.50
2022-11-06T10:35:09.142Z,14.50
2022-11-06T10:40:24.594Z,13.90
2022-11-06T10:45:28.598Z,13.00
2022-11-06T10:50:43.229Z,12.60
2022-11-06T10:56:23.832Z,12.20
2022-11-06T11:01:26.124Z,12.00
2022-11-06T11:06:28.404Z,12.10
2022-11-06T11:11:30.726Z,12.10
2022-11-06T11:16:37.741Z,12.10
2022-11-06T11:22:01.996Z,11.90
2022-11-06T11:27:07.692Z,12.00
2022-11-06T11:32:15.539Z,12.30
2022-11-06T11:37:32.105Z,12.40
2022-11-06T11:42:34.361Z,12.60
2022-11-06T11:47:38.151Z,13.00
2022-11-06T11:52:42.735Z,13.30
2022-11-06T11:57:48.841Z,13.40
2022-11-06T12:03:00.223Z,13.20
2022-11-06T12:08:02.908Z,13.30
2022-11-06T12:13:20.061Z,13.60
2022-11-06T12:18:47.119Z,14.10
2022-11-06T12:23:54.389Z,14.10
2022-11-06T12:29:05.382Z,14.40
2022-11-06T12:34:23.223Z,14.70
2022-11-06T12:39:31.350Z,15.00
2022-11-06T12:44:33.604Z,15.10
2022-11-06T12:50:08.249Z,15.10
2022-11-06T12:55:29.755Z,15.10
2022-11-06T13:00:50.745Z,15.50
2022-11-06T13:06:12.861Z,15.60
2022-11-06T13:11:41.523Z,15.40
2022-11-06T13:16:49.155Z,15.00
2022-11-06T13:21:51.247Z,14.70
2022-11-06T13:27:04.609Z,14.80
2022-11-06T13:32:15.133Z,15.10
2022-11-06T13:37:35.586Z,15.50
2022-11-06T13:42:43.294Z,15.60
2022-11-06T13:48:03.782Z,15.10
2022-11-06T13:53:17.837Z,14.80
2022-11-06T13:58:43.275Z,15.30
2022-11-06T14:04:07.455Z,15.60
2022-11-06T14:09:19.913Z,15.70
2022-11-06T14:14:21.907Z,15.90
2022-11-06T14:19:29.974Z,15.80
2022-11-06T14:24:42.247Z,15.70
2022-11-06T14:30:08.010Z,15.90
2022-11-06T14:35:28.748Z,15.80
2022-11-06T14:40:32.702Z,15.50
2022-11-06T14:45:34.903Z,15.40
2022-11-06T14:50:40.812Z,15.50
2022-11-06T14:55:46.546Z,15.70
2022-11-06T15:00:59.137Z,15.50
2022-11-06T15:06:07.210Z,15.40
2022-11-06T15:11:09.318Z,15.40
2022-11-06T15:16:12.765Z,15.30
2022-11-06T15:21:31.803Z,15.00
2022-11-06T15:26:45.639Z,14.70
2022-11-06T15:31:51.117Z,14.80
2022-11-06T15:37:19.427Z,14.80
2022-11-06T15:42:24.881Z,14.70
2022-11-06T15:47:33.154Z,14.40
2022-11-06T15:52:35.412Z,14.30
2022-11-06T15:57:37.580Z,14.20
2022-11-06T16:02:51.582Z,14.10
2022-11-06T16:07:54.298Z,14.00
2022-11-06T16:12:56.990Z,14.00
2022-11-06T16:18:06.376Z,13.90
2022-11-06T16:23:13.310Z,13.90
2022-11-06T16:28:21.660Z,13.80
2022-11-06T16:33:24.442Z,13.70
2022-11-06T16:38:53.416Z,13.60
2022-11-06T16:44:31.345Z,13.50
2022-11-06T16:49:34.827Z,13.40
2022-11-06T16:54:38.131Z,13.40
2022-11-06T16:59:40.688Z,13.30
2022-11-06T17:04:43.980Z,13.30
2022-11-06T17:09:46.239Z,13.20
2022-11-06T17:14:48.667Z,13.20
2022-11-06T17:19:51.374Z,13.20
2022-11-06T17:24:53.518Z,13.30
2022-11-06T17:29:55.800Z,13.20
2022-11-06T17:34:57.990Z,13.20
2022-11-06T17:40:00.173Z,13.30
2022-11-06T17:45:02.282Z,13.30
2022-11-06T17:50:04.797Z,13.30
2022-11-06T17:55:07.263Z,13.10
2022-11-06T18:00:10.572Z,13.10
2022-11-06T18:05:16.486Z,13.10
2022-11-06T18:10:18.688Z,13.00
2022-11-06T18:15:20.870Z,13.00
2022-11-06T18:20:22.966Z,13.00
2022-11-06T18:25:25.039Z,13.00
2022-11-06T18:30:27.106Z,12.90
2022-11-06T18:35:29.381Z,13.00
2022-11-06T18:40:31.712Z,13.00
2022-11-06T18:45:36.754Z,13.00
2022-11-06T18:50:38.891Z,12.90
2022-11-06T18:55:46.027Z,12.90
2022-11-06T19:00:48.232Z,12.90
2022-11-06T19:05:51.719Z,13.00
2022-11-06T19:10:53.803Z,13.00
2022-11-06T19:15:59.058Z,13.00
2022-11-06T19:21:03.709Z,13.10
2022-11-06T19:26:30.171Z,13.10
2022-11-06T19:31:31.918Z,13.10
2022-11-06T19:36:34.555Z,13.10
2022-11-06T19:41:36.766Z,13.10
2022-11-06T19:46:39.116Z,13.10
2022-11-06T19:51:41.299Z,13.10
2022-11-06T19:57:26.880Z,13.10
2022-11-06T20:02:05.933Z,13.10
2022-11-06T20:07:09.158Z,13.20
2022-11-06T20:12:14.020Z,13.20
2022-11-06T20:17:18.221Z,13.10
2022-11-06T20:22:20.363Z,13.10
2022-11-06T20:27:22.553Z,13.10
2022-11-06T20:32:24.655Z,13.10
2022-11-06T20:37:27.291Z,13.10
2022-11-06T20:42:29.431Z,13.10
2022-11-06T20:47:31.701Z,13.20
2022-11-06T20:52:33.898Z,13.10
2022-11-06T20:57:36.436Z,13.20
2022-11-06T21:02:39.838Z,13.20
2022-11-06T21:07:42.111Z,13.20
2022-11-06T21:12:44.222Z,13.20
2022-11-06T21:17:46.399Z,13.20
2022-11-06T21:22:48.479Z,13.20
2022-11-06T21:27:50.658Z,13.20
2022-11-06T21:32:52.795Z,13.20
2022-11-06T21:37:54.927Z,13.20
2022-11-06T21:42:57.222Z,13.20
2022-11-06T21:47:59.354Z,13.20
2022-11-06T21:53:20.028Z,13.30
2022-11-06T21:58:22.624Z,13.30
2022-11-06T22:03:24.820Z,13.30
2022-11-06T22:08:30.449Z,13.40
2022-11-06T22:13:32.818Z,13.40
2022-11-06T22:18:35.422Z,13.40
2022-11-06T22:23:38.296Z,13.40
2022-11-06T22:28:40.972Z,13.40
2022-11-06T22:33:43.092Z,13.40
2022-11-06T22:38:46.088Z,13.40
2022-11-06T22:43:48.373Z,13.40
2022-11-06T22:48:51.855Z,13.40
2022-11-06T22:53:54.908Z,13.40
2022-11-06T22:58:59.249Z,13.40
2022-11-06T23:04:02.401Z,13.30
2022-11-06T23:09:04.793Z,13.30
2022-11-06T23:14:09.125Z,13.30
2022-11-06T23:19:14.971Z,13.30
2022-11-06T23:24:17.233Z,13.30
2022-11-06T23:29:19.434Z,13.30
2022-11-06T23:34:21.579Z,13.20
2022-11-06T23:39:23.843Z,13.20
2022-11-06T23:44:44.667Z,13.20
2022-11-06T23:49:46.804Z,13.20
2022-11-06T23:54:49.080Z,13.20
2022-11-06T23:59:51.368Z,13.20
